createdAt,value
2023-01-13T00:00:32.779Z,0.90
2023-01-13T00:02:35.717Z,1.13
2023-01-13T00:04:38.605Z,1.20
2023-01-13T00:06:41.385Z,1.02
2023-01-13T00:08:44.279Z,0.60
2023-01-13T00:10:48.577Z,0.77
2023-01-13T00:12:53.444Z,1.05
2023-01-13T00:14:56.227Z,0.80
2023-01-13T00:16:58.965Z,1.52
2023-01-13T00:19:01.737Z,1.00
2023-01-13T00:21:07.257Z,1.73
2023-01-13T00:23:10.122Z,1.00
2023-01-13T00:25:13.303Z,1.00
2023-01-13T00:27:16.048Z,0.90
2023-01-13T00:29:20.869Z,1.08
2023-01-13T00:31:23.739Z,0.60
2023-01-13T00:33:26.667Z,1.08
2023-01-13T00:35:29.688Z,1.20
2023-01-13T00:37:32.420Z,0.85
2023-01-13T00:39:35.290Z,1.38
2023-01-13T00:41:51.995Z,0.85
2023-01-13T00:43:54.758Z,1.05
2023-01-13T00:45:59.642Z,0.93
2023-01-13T00:50:05.441Z,1.92
2023-01-13T00:52:08.226Z,1.40
2023-01-13T00:54:10.976Z,1.27
2023-01-13T00:56:18.109Z,1.00
2023-01-13T00:58:20.998Z,1.05
2023-01-13T01:00:23.933Z,0.80
2023-01-13T01:02:28.201Z,1.00
2023-01-13T01:04:31.847Z,1.27
2023-01-13T01:06:34.798Z,1.20
2023-01-13T01:08:37.833Z,1.98
2023-01-13T01:10:40.644Z,1.00
2023-01-13T01:12:43.472Z,0.85
2023-01-13T01:14:46.419Z,1.20
2023-01-13T01:16:49.171Z,1.13
2023-01-13T01:18:54.436Z,0.80
2023-01-13T01:21:00.618Z,1.15
2023-01-13T01:23:03.434Z,1.08
2023-01-13T01:25:07.046Z,1.52
2023-01-13T01:27:09.783Z,0.90
2023-01-13T01:29:15.058Z,0.80
2023-01-13T01:31:19.822Z,1.13
2023-01-13T01:33:23.006Z,1.15
2023-01-13T01:35:27.167Z,1.20
2023-01-13T01:37:29.904Z,0.95
2023-01-13T01:39:32.755Z,0.80
2023-01-13T01:41:37.062Z,0.80
2023-01-13T01:44:02.845Z,0.98
2023-01-13T01:46:06.588Z,0.90
2023-01-13T01:48:10.303Z,0.80
2023-01-13T01:50:13.217Z,0.88
2023-01-13T01:52:20.133Z,0.68
2023-01-13T01:54:27.371Z,0.98
2023-01-13T01:56:31.175Z,1.00
2023-01-13T01:58:38.565Z,1.00
2023-01-13T02:00:41.424Z,1.52
2023-01-13T02:02:46.996Z,1.38
2023-01-13T02:04:53.933Z,0.90
2023-01-13T02:06:57.901Z,0.88
2023-01-13T02:09:02.299Z,0.90
2023-01-13T02:11:05.235Z,0.98
2023-01-13T02:13:10.692Z,0.95
2023-01-13T02:15:17.078Z,0.93
2023-01-13T02:17:31.361Z,0.90
2023-01-13T02:20:08.006Z,1.50
2023-01-13T02:22:33.557Z,1.08
2023-01-13T02:25:13.107Z,0.95
2023-01-13T02:27:54.355Z,0.40
2023-01-13T02:30:27.697Z,0.82
2023-01-13T02:32:41.097Z,0.90
2023-01-13T02:34:54.376Z,0.90
2023-01-13T02:37:02.945Z,0.73
2023-01-13T02:39:13.001Z,1.15
2023-01-13T02:41:39.352Z,0.88
2023-01-13T02:44:00.925Z,1.05
2023-01-13T02:46:14.338Z,0.70
2023-01-13T02:48:20.123Z,1.05
2023-01-13T02:50:28.621Z,1.00
2023-01-13T02:52:36.988Z,1.50
2023-01-13T02:54:43.862Z,1.30
2023-01-13T02:56:49.600Z,1.00
2023-01-13T02:58:54.770Z,0.70
2023-01-13T03:00:57.768Z,0.90
2023-01-13T03:03:03.151Z,0.85
2023-01-13T03:05:06.887Z,0.93
2023-01-13T03:07:14.378Z,1.45
2023-01-13T03:09:23.436Z,0.88
2023-01-13T03:11:34.503Z,0.80
2023-01-13T03:14:01.068Z,1.23
2023-01-13T03:16:16.006Z,0.65
2023-01-13T03:18:33.003Z,0.88
2023-01-13T03:20:41.154Z,0.85
2023-01-13T03:22:49.504Z,0.95
2023-01-13T03:24:57.354Z,0.63
2023-01-13T03:27:05.259Z,0.77
2023-01-13T03:29:12.828Z,1.67
2023-01-13T03:31:20.763Z,0.90
2023-01-13T03:33:30.332Z,0.77
2023-01-13T03:35:38.576Z,0.75
2023-01-13T03:37:46.955Z,0.93
2023-01-13T03:39:54.986Z,0.70
2023-01-13T03:42:01.840Z,0.90
2023-01-13T03:44:24.897Z,0.93
2023-01-13T03:46:34.939Z,0.68
2023-01-13T03:48:44.916Z,0.90
2023-01-13T03:50:51.496Z,0.98
2023-01-13T03:52:59.515Z,1.08
2023-01-13T03:55:05.955Z,0.90
2023-01-13T03:57:13.280Z,0.88
2023-01-13T03:59:21.653Z,0.70
2023-01-13T04:01:31.729Z,0.70
2023-01-13T04:03:40.967Z,1.77
2023-01-13T04:05:52.601Z,0.82
2023-01-13T04:08:03.293Z,1.45
2023-01-13T04:10:09.200Z,0.60
2023-01-13T04:12:16.638Z,0.55
2023-01-13T04:14:21.547Z,1.00
2023-01-13T04:16:24.741Z,0.95
2023-01-13T04:18:30.465Z,1.38
2023-01-13T04:20:33.235Z,1.00
2023-01-13T04:22:37.490Z,0.95
2023-01-13T04:24:40.278Z,1.00
2023-01-13T04:26:43.010Z,0.73
2023-01-13T04:28:45.775Z,0.57
2023-01-13T04:30:48.962Z,1.02
2023-01-13T04:32:51.777Z,0.50
2023-01-13T04:34:54.566Z,0.60
2023-01-13T04:36:57.515Z,0.63
2023-01-13T04:39:01.649Z,0.85
2023-01-13T04:41:04.512Z,0.93
2023-01-13T04:43:07.523Z,0.75
2023-01-13T04:45:11.254Z,0.82
2023-01-13T04:47:14.003Z,0.40
2023-01-13T04:49:16.878Z,0.73
2023-01-13T04:51:21.345Z,0.85
2023-01-13T04:53:24.141Z,1.08
2023-01-13T04:55:28.787Z,0.63
2023-01-13T04:57:33.196Z,0.68
2023-01-13T04:59:35.978Z,0.75
2023-01-13T05:01:38.926Z,0.60
2023-01-13T05:03:41.802Z,0.60
2023-01-13T05:05:44.641Z,0.73
2023-01-13T05:07:47.552Z,0.65
2023-01-13T05:09:50.459Z,0.60
2023-01-13T05:12:12.010Z,0.68
2023-01-13T05:14:32.138Z,0.70
2023-01-13T05:16:52.434Z,0.60
2023-01-13T05:18:55.483Z,0.88
2023-01-13T05:20:58.762Z,0.70
2023-01-13T05:23:19.029Z,0.52
2023-01-13T05:25:25.256Z,0.80
2023-01-13T05:27:30.265Z,0.50
2023-01-13T05:31:36.050Z,0.63
2023-01-13T05:33:38.873Z,0.77
2023-01-13T05:35:43.766Z,0.70
2023-01-13T05:40:07.887Z,0.60
2023-01-13T05:42:28.131Z,1.38
2023-01-13T05:44:32.225Z,0.50
2023-01-13T05:46:35.113Z,0.60
2023-01-13T05:48:39.572Z,0.68
2023-01-13T05:50:42.389Z,0.80
2023-01-13T05:52:45.503Z,0.70
2023-01-13T05:54:48.284Z,0.57
2023-01-13T05:56:56.712Z,0.65
2023-01-13T05:58:59.789Z,0.75
2023-01-13T06:01:05.999Z,0.60
2023-01-13T06:03:09.086Z,0.60
2023-01-13T06:05:11.946Z,0.60
2023-01-13T06:07:14.705Z,0.40
2023-01-13T06:09:17.603Z,0.98
2023-01-13T06:11:20.577Z,0.82
2023-01-13T06:13:36.771Z,0.50
2023-01-13T06:15:39.657Z,0.80
2023-01-13T06:17:43.735Z,0.70
2023-01-13T06:19:46.420Z,0.50
2023-01-13T06:21:49.214Z,0.50
2023-01-13T06:23:51.998Z,0.68
2023-01-13T06:26:02.192Z,0.60
2023-01-13T06:28:05.284Z,0.52
2023-01-13T06:30:09.565Z,0.52
2023-01-13T06:32:17.417Z,0.65
2023-01-13T06:34:21.776Z,0.55
2023-01-13T06:36:27.835Z,0.60
2023-01-13T06:38:35.906Z,0.70
2023-01-13T06:40:39.043Z,1.17
2023-01-13T06:43:00.042Z,1.55
2023-01-13T06:45:02.884Z,1.10
2023-01-13T06:47:06.144Z,0.70
2023-01-13T06:49:09.193Z,1.20
2023-01-13T06:51:14.395Z,1.17
2023-01-13T06:53:49.141Z,0.60
2023-01-13T06:55:52.069Z,0.60
2023-01-13T06:57:56.887Z,0.52
2023-01-13T06:59:59.646Z,0.50
2023-01-13T07:02:02.956Z,0.57
2023-01-13T07:04:06.143Z,0.50
2023-01-13T07:06:09.214Z,0.47
2023-01-13T07:08:13.382Z,0.30
2023-01-13T07:10:22.051Z,0.30
2023-01-13T07:12:24.902Z,0.45
2023-01-13T07:14:45.031Z,0.40
2023-01-13T07:16:47.905Z,0.30
2023-01-13T07:18:50.862Z,0.73
2023-01-13T07:20:54.831Z,0.52
2023-01-13T07:22:58.882Z,0.43
2023-01-13T07:25:03.070Z,0.40
2023-01-13T07:27:05.976Z,0.63
2023-01-13T07:29:08.803Z,0.57
2023-01-13T07:31:16.720Z,0.50
2023-01-13T07:33:19.893Z,0.50
2023-01-13T07:35:23.457Z,0.82
2023-01-13T07:37:26.264Z,1.20
2023-01-13T07:39:29.353Z,0.50
2023-01-13T07:41:51.040Z,0.60
2023-01-13T07:43:53.856Z,0.50
2023-01-13T07:45:58.448Z,0.50
2023-01-13T07:48:01.337Z,0.77
2023-01-13T07:50:04.505Z,0.43
2023-01-13T07:52:07.264Z,0.50
2023-01-13T07:54:10.104Z,0.60
2023-01-13T07:56:12.932Z,0.52
2023-01-13T07:58:17.197Z,0.52
2023-01-13T08:00:21.065Z,0.68
2023-01-13T08:02:24.246Z,1.33
2023-01-13T08:04:27.072Z,0.88
2023-01-13T08:06:29.936Z,1.48
2023-01-13T08:08:32.735Z,1.42
2023-01-13T08:10:35.506Z,1.33
2023-01-13T08:12:55.119Z,1.00
2023-01-13T08:15:01.473Z,1.95
2023-01-13T08:17:04.346Z,0.90
2023-01-13T08:19:07.117Z,1.65
2023-01-13T08:21:11.740Z,1.30
2023-01-13T08:23:15.771Z,1.20
2023-01-13T08:25:18.830Z,1.98
2023-01-13T08:27:21.631Z,1.23
2023-01-13T08:29:24.484Z,1.05
2023-01-13T08:31:28.701Z,2.60
2023-01-13T08:33:31.973Z,1.42
2023-01-13T08:35:35.155Z,1.15
2023-01-13T08:37:37.965Z,1.25
2023-01-13T08:39:40.710Z,1.13
2023-01-13T08:41:56.732Z,1.00
2023-01-13T08:43:59.663Z,0.88
2023-01-13T08:46:05.113Z,0.90
2023-01-13T08:48:09.824Z,0.60
2023-01-13T08:50:13.295Z,0.65
2023-01-13T08:52:16.731Z,1.40
2023-01-13T08:54:19.887Z,1.30
2023-01-13T08:56:22.748Z,0.98
2023-01-13T08:58:28.093Z,0.88
2023-01-13T09:00:31.644Z,0.80
2023-01-13T09:02:35.062Z,1.10
2023-01-13T09:04:39.958Z,1.30
2023-01-13T09:06:42.811Z,1.20
2023-01-13T09:08:45.982Z,1.27
2023-01-13T09:10:48.822Z,1.45
2023-01-13T09:13:09.518Z,1.40
2023-01-13T09:15:12.595Z,1.30
2023-01-13T09:17:15.818Z,1.67
2023-01-13T09:19:18.647Z,1.48
2023-01-13T09:21:23.032Z,1.55
2023-01-13T09:23:25.850Z,1.63
2023-01-13T09:25:28.756Z,2.50
2023-01-13T09:27:31.816Z,1.38
2023-01-13T09:29:34.611Z,1.65
2023-01-13T09:31:37.644Z,1.42
2023-01-13T09:34:00.411Z,1.45
2023-01-13T09:36:03.236Z,1.67
2023-01-13T09:38:07.815Z,1.50
2023-01-13T09:40:17.922Z,1.40
2023-01-13T09:42:46.743Z,1.65
2023-01-13T09:44:57.143Z,0.88
2023-01-13T09:47:05.518Z,1.70
2023-01-13T09:49:13.852Z,1.88
2023-01-13T09:51:24.638Z,1.55
2023-01-13T09:53:31.015Z,4.50
2023-01-13T09:55:37.062Z,1.70
2023-01-13T09:57:40.185Z,1.40
2023-01-13T09:59:43.779Z,1.42
2023-01-13T10:01:57.326Z,1.23
2023-01-13T10:04:04.718Z,2.03
2023-01-13T10:06:14.585Z,1.13
2023-01-13T10:08:22.955Z,2.00
2023-01-13T10:10:34.655Z,1.27
2023-01-13T10:12:55.115Z,1.52
2023-01-13T10:14:58.214Z,1.35
2023-01-13T10:17:08.603Z,1.10
2023-01-13T10:19:19.511Z,1.88
2023-01-13T10:21:41.551Z,1.60
2023-01-13T10:24:03.197Z,1.80
2023-01-13T10:26:27.969Z,1.50
2023-01-13T10:28:30.781Z,1.50
2023-01-13T10:30:38.720Z,1.63
2023-01-13T10:32:44.718Z,1.58
2023-01-13T10:34:49.553Z,1.65
2023-01-13T10:39:09.411Z,1.48
2023-01-13T10:41:24.849Z,1.17
2023-01-13T10:43:29.369Z,1.50
2023-01-13T10:45:32.141Z,1.70
2023-01-13T10:47:37.792Z,1.60
2023-01-13T10:49:41.056Z,1.85
2023-01-13T10:51:45.519Z,1.30
2023-01-13T10:53:54.091Z,1.23
2023-01-13T10:56:02.359Z,2.63
2023-01-13T10:58:15.318Z,1.65
2023-01-13T11:00:28.663Z,1.80
2023-01-13T11:02:33.640Z,1.77
2023-01-13T11:04:38.825Z,1.58
2023-01-13T11:06:47.020Z,1.98
2023-01-13T11:08:52.470Z,2.15
2023-01-13T11:10:57.974Z,1.38
2023-01-13T11:13:08.402Z,1.75
2023-01-13T11:15:19.371Z,2.17
2023-01-13T11:17:40.535Z,2.75
2023-01-13T11:19:58.090Z,1.80
2023-01-13T11:22:07.115Z,2.25
2023-01-13T11:24:17.448Z,1.90
2023-01-13T11:26:28.255Z,1.88
2023-01-13T11:28:42.288Z,1.90
2023-01-13T11:30:56.218Z,1.75
2023-01-13T11:33:16.626Z,2.05
2023-01-13T11:35:22.634Z,1.65
2023-01-13T11:37:28.892Z,1.83
2023-01-13T11:39:45.523Z,2.30
2023-01-13T11:42:13.683Z,2.03
2023-01-13T11:44:22.275Z,2.38
2023-01-13T11:46:29.034Z,2.03
2023-01-13T11:48:35.547Z,1.52
2023-01-13T11:50:43.238Z,2.60
2023-01-13T11:53:08.461Z,1.73
2023-01-13T11:55:23.480Z,1.83
2023-01-13T11:57:43.246Z,1.60
2023-01-13T12:00:10.753Z,1.95
2023-01-13T12:02:27.947Z,2.25
2023-01-13T12:04:40.588Z,2.70
2023-01-13T12:06:46.025Z,1.98
2023-01-13T12:09:22.162Z,1.95
2023-01-13T12:11:32.106Z,2.67
2023-01-13T12:13:57.863Z,2.78
2023-01-13T12:18:41.535Z,2.25
2023-01-13T12:20:53.781Z,1.90
2023-01-13T12:23:01.127Z,2.17
2023-01-13T12:25:08.244Z,1.70
2023-01-13T12:27:16.777Z,1.75
2023-01-13T12:29:21.521Z,2.90
2023-01-13T12:31:25.212Z,2.80
2023-01-13T12:33:52.427Z,2.20
2023-01-13T12:36:03.261Z,2.38
2023-01-13T12:38:12.609Z,2.05
2023-01-13T12:40:35.907Z,2.17
2023-01-13T12:43:04.951Z,2.00
2023-01-13T12:45:34.925Z,3.00
2023-01-13T12:47:39.053Z,1.40
2023-01-13T12:49:45.825Z,2.58
2023-01-13T12:52:14.872Z,1.83
2023-01-13T12:54:54.736Z,1.52
2023-01-13T12:56:58.180Z,1.60
2023-01-13T12:59:51.084Z,1.35
2023-01-13T13:02:30.818Z,1.88
2023-01-13T13:04:47.893Z,2.10
2023-01-13T13:06:55.311Z,1.60
2023-01-13T13:09:04.160Z,1.80
2023-01-13T13:11:40.610Z,2.35
2023-01-13T13:15:49.740Z,2.20
2023-01-13T13:18:04.255Z,1.67
2023-01-13T13:20:54.317Z,1.60
2023-01-13T13:22:57.141Z,1.40
2023-01-13T13:25:22.608Z,1.75
2023-01-13T13:27:29.709Z,1.63
2023-01-13T13:29:50.631Z,1.88
2023-01-13T13:32:20.087Z,1.48
2023-01-13T13:34:33.088Z,1.67
2023-01-13T13:37:06.372Z,2.03
2023-01-13T13:39:39.676Z,1.88
2023-01-13T13:42:03.551Z,1.50
2023-01-13T13:44:33.687Z,1.95
2023-01-13T13:46:49.327Z,1.65
2023-01-13T13:48:53.890Z,0.98
2023-01-13T13:51:02.052Z,1.33
2023-01-13T13:53:09.152Z,1.33
2023-01-13T13:55:18.727Z,1.73
2023-01-13T13:57:28.052Z,1.35
2023-01-13T13:59:33.553Z,1.55
2023-01-13T14:01:39.559Z,1.40
2023-01-13T14:03:42.386Z,1.60
2023-01-13T14:05:55.025Z,1.40
2023-01-13T14:08:02.384Z,2.33
2023-01-13T14:10:15.169Z,2.10
2023-01-13T14:12:20.665Z,2.35
2023-01-13T14:14:24.881Z,2.17
2023-01-13T14:16:27.718Z,1.70
2023-01-13T14:18:32.978Z,2.17
2023-01-13T14:20:36.851Z,1.30
2023-01-13T14:22:39.696Z,1.30
2023-01-13T14:24:47.262Z,1.35
2023-01-13T14:26:53.046Z,1.58
2023-01-13T14:28:57.334Z,1.75
2023-01-13T14:31:01.268Z,1.33
2023-01-13T14:33:04.317Z,1.10
2023-01-13T14:35:08.264Z,1.65
2023-01-13T14:37:24.824Z,1.60
2023-01-13T14:39:37.243Z,1.23
2023-01-13T14:41:48.969Z,1.58
2023-01-13T14:43:55.766Z,1.65
2023-01-13T14:46:00.804Z,1.63
2023-01-13T14:48:09.852Z,1.80
2023-01-13T14:50:28.094Z,1.67
2023-01-13T14:52:33.370Z,1.52
2023-01-13T14:54:47.834Z,1.90
2023-01-13T14:56:53.702Z,1.80
2023-01-13T14:58:57.889Z,2.50
2023-01-13T15:01:29.708Z,2.78
2023-01-13T15:03:42.088Z,2.42
2023-01-13T15:05:50.179Z,2.50
2023-01-13T15:07:55.256Z,2.10
2023-01-13T15:12:16.977Z,2.58
2023-01-13T15:14:27.109Z,2.03
2023-01-13T15:16:33.774Z,2.30
2023-01-13T15:18:40.078Z,2.30
2023-01-13T15:20:43.475Z,2.17
2023-01-13T15:22:46.439Z,1.90
2023-01-13T15:24:50.059Z,1.80
2023-01-13T15:26:52.826Z,2.08
2023-01-13T15:28:57.647Z,2.50
2023-01-13T15:35:10.945Z,2.25
2023-01-13T15:37:14.258Z,2.83
2023-01-13T15:39:17.046Z,1.65
2023-01-13T15:41:40.735Z,2.40
2023-01-13T15:44:01.011Z,2.38
2023-01-13T15:46:33.667Z,2.25
2023-01-13T15:48:36.660Z,2.00
2023-01-13T15:50:40.041Z,1.77
2023-01-13T15:52:42.925Z,1.42
2023-01-13T15:54:45.792Z,2.25
2023-01-13T15:56:48.723Z,2.50
2023-01-13T15:58:51.804Z,2.67
2023-01-13T16:00:54.821Z,2.42
2023-01-13T16:02:59.758Z,2.25
2023-01-13T16:07:14.711Z,1.75
2023-01-13T16:09:17.781Z,2.33
2023-01-13T16:11:20.607Z,2.65
2023-01-13T16:13:23.445Z,2.80
2023-01-13T16:15:26.268Z,2.08
2023-01-13T16:17:30.133Z,2.38
2023-01-13T16:19:34.373Z,2.20
2023-01-13T16:21:37.173Z,2.38
2023-01-13T16:23:40.098Z,1.83
2023-01-13T16:25:44.990Z,2.33
2023-01-13T16:29:51.525Z,1.90
2023-01-13T16:31:54.438Z,2.00
2023-01-13T16:33:57.585Z,1.58
2023-01-13T16:36:10.253Z,1.60
2023-01-13T16:38:16.697Z,2.00
2023-01-13T16:40:24.549Z,2.00
2023-01-13T16:42:27.354Z,2.10
2023-01-13T16:44:31.594Z,2.45
2023-01-13T16:46:35.123Z,2.63
2023-01-13T16:48:37.993Z,1.50
2023-01-13T16:50:42.348Z,2.33
2023-01-13T16:52:46.501Z,2.65
2023-01-13T16:54:49.307Z,2.08
2023-01-13T16:56:52.100Z,2.50
2023-01-13T16:58:56.929Z,2.58
2023-01-13T17:03:03.239Z,2.08
2023-01-13T17:05:06.668Z,1.75
2023-01-13T17:07:10.850Z,1.83
2023-01-13T17:09:17.399Z,1.92
2023-01-13T17:11:21.632Z,1.85
2023-01-13T17:13:24.549Z,2.08
2023-01-13T17:15:27.445Z,1.88
2023-01-13T17:17:30.289Z,2.25
2023-01-13T17:19:33.235Z,2.00
2023-01-13T17:21:36.525Z,2.75
2023-01-13T17:23:39.409Z,1.60
2023-01-13T17:25:43.666Z,1.90
2023-01-13T17:27:46.534Z,2.25
2023-01-13T17:29:49.387Z,2.22
2023-01-13T17:31:53.262Z,2.35
2023-01-13T17:33:56.245Z,2.43
2023-01-13T17:35:58.962Z,1.92
2023-01-13T17:38:02.948Z,2.17
2023-01-13T17:40:06.991Z,2.00
2023-01-13T17:42:11.248Z,2.28
2023-01-13T17:44:14.243Z,1.67
2023-01-13T17:46:18.577Z,2.95
2023-01-13T17:48:21.694Z,1.67
2023-01-13T17:50:24.737Z,2.00
2023-01-13T17:52:27.633Z,2.20
2023-01-13T17:54:30.444Z,1.98
2023-01-13T17:56:33.199Z,2.63
2023-01-13T17:58:37.474Z,2.47
2023-01-13T18:00:40.543Z,1.92
2023-01-13T18:02:43.405Z,2.13
2023-01-13T18:04:46.204Z,2.22
2023-01-13T18:06:49.503Z,1.90
2023-01-13T20:58:26.535Z,2.38
2023-01-13T21:00:29.646Z,2.10
2023-01-13T21:02:32.528Z,2.40
2023-01-13T21:04:35.475Z,2.50
2023-01-13T21:08:46.363Z,2.05
2023-01-13T21:10:49.114Z,2.60
2023-01-13T21:13:09.429Z,2.30
2023-01-13T21:15:19.895Z,2.92
2023-01-13T21:17:40.720Z,2.67
2023-01-13T21:19:43.541Z,2.72
2023-01-13T21:21:46.347Z,5.82
2023-01-13T21:23:52.835Z,2.72
2023-01-13T21:25:55.721Z,2.42
2023-01-13T21:28:03.187Z,3.38
2023-01-13T21:30:07.199Z,3.72
2023-01-13T21:32:11.397Z,2.80
2023-01-13T21:34:16.946Z,2.10
2023-01-13T21:36:19.825Z,2.42
2023-01-13T21:38:22.641Z,2.85
2023-01-13T21:40:25.506Z,2.30
2023-01-13T21:42:46.133Z,2.80
2023-01-13T21:45:06.832Z,3.80
2023-01-13T21:47:33.944Z,3.05
2023-01-13T21:49:43.882Z,3.95
2023-01-13T21:51:46.771Z,3.40
2023-01-13T21:53:49.553Z,2.60
2023-01-13T21:55:53.017Z,3.15
2023-01-13T21:57:57.831Z,5.10
2023-01-13T22:02:25.199Z,3.05
2023-01-13T22:04:29.587Z,2.97
2023-01-13T22:06:32.473Z,2.78
2023-01-13T22:08:35.679Z,2.80
2023-01-13T22:10:56.835Z,2.47
2023-01-13T22:13:22.191Z,2.80
2023-01-13T22:15:27.011Z,3.83
2023-01-13T22:19:39.052Z,2.42
2023-01-13T22:21:41.869Z,2.67
2023-01-13T22:23:45.009Z,3.33
2023-01-13T22:25:47.862Z,3.40
2023-01-13T22:27:52.353Z,2.65
2023-01-13T22:29:55.546Z,3.10
2023-01-13T22:31:58.354Z,2.47
2023-01-13T22:34:01.106Z,2.40
2023-01-13T22:36:06.010Z,2.50
2023-01-13T22:38:11.975Z,3.05
2023-01-13T22:40:15.049Z,2.50
2023-01-13T22:42:17.827Z,2.90
2023-01-13T22:44:21.197Z,2.60
2023-01-13T22:46:23.982Z,2.80
2023-01-13T22:48:27.266Z,2.60
2023-01-13T22:50:30.216Z,2.80
2023-01-13T22:52:35.424Z,2.92
2023-01-13T22:54:38.229Z,2.75
2023-01-13T22:56:41.508Z,2.13
2023-01-13T22:58:44.684Z,3.13
2023-01-13T23:00:47.733Z,2.60
2023-01-13T23:02:50.489Z,3.85
2023-01-13T23:04:53.473Z,3.45
2023-01-13T23:06:56.257Z,2.78
2023-01-13T23:09:01.495Z,3.28
2023-01-13T23:11:06.206Z,3.33
2023-01-13T23:13:09.808Z,3.05
2023-01-13T23:15:12.804Z,2.70
2023-01-13T23:17:15.602Z,2.42
2023-01-13T23:19:18.405Z,2.95
2023-01-13T23:21:23.199Z,2.95
2023-01-13T23:23:25.987Z,1.83
2023-01-13T23:25:30.158Z,2.92
2023-01-13T23:27:34.228Z,2.80
2023-01-13T23:29:37.087Z,2.92
2023-01-13T23:31:40.281Z,13.30
2023-01-13T23:33:43.970Z,15.57
2023-01-13T23:35:56.345Z,13.82
2023-01-13T23:37:59.149Z,5.85
2023-01-13T23:40:02.326Z,2.80
2023-01-13T23:42:06.747Z,2.55
2023-01-13T23:44:10.611Z,3.25
2023-01-13T23:46:16.278Z,2.63
2023-01-13T23:48:19.148Z,2.60
2023-01-13T23:50:21.935Z,2.42
2023-01-13T23:52:24.747Z,3.35
2023-01-13T23:54:27.612Z,3.08
2023-01-13T23:56:32.279Z,2.35
2023-01-13T23:58:36.480Z,2.95
